LZB977 LBSF-LBWN

Flight info

Callsign LZB977
Flight time 0h 37m
Altitude 27000
Route UMPIT T343 DICXA
Aircraft A320/M-SDE3FGHIRWY/LB1

Departure

Time 2026-04-28 13:02
Airport Sofia Airport (LBSF)

Arrival

Time 2026-04-28 13:39
Airport Varna Airport (LBWN)
Time Latitude Longitude Altitude Speed Heading
2026-04-28 12:42 42.69001 23.40636 1763 ft 0 kts 195°
2026-04-28 12:56 42.68997 23.40634 1763 ft 1 kts 195°
2026-04-28 12:56 42.68975 23.40622 1763 ft 5 kts 211°
2026-04-28 12:57 42.68962 23.40569 1763 ft 7 kts 283°
2026-04-28 12:57 42.68982 23.40486 1763 ft 10 kts 287°
2026-04-28 12:57 42.69007 23.40368 1763 ft 14 kts 285°
2026-04-28 12:57 42.69069 23.40310 1763 ft 12 kts 15°
2026-04-28 12:58 42.69153 23.40345 1763 ft 13 kts 15°
2026-04-28 12:58 42.69257 23.40386 1763 ft 18 kts 16°
2026-04-28 12:58 42.69384 23.40437 1763 ft 18 kts 16°
2026-04-28 12:58 42.69503 23.40487 1762 ft 15 kts 27°
2026-04-28 12:59 42.69567 23.40604 1762 ft 15 kts 64°
2026-04-28 12:59 42.69601 23.40700 1762 ft 1 kts 64°
2026-04-28 13:00 42.69603 23.40706 1762 ft 2 kts 64°
2026-04-28 13:00 42.69620 23.40755 1762 ft 8 kts 65°
2026-04-28 13:01 42.69655 23.40863 1762 ft 16 kts 70°
2026-04-28 13:01 42.69683 23.41036 1762 ft 16 kts 82°
2026-04-28 13:01 42.69684 23.41119 1762 ft 0 kts 93°
2026-04-28 13:02 42.69674 23.41334 1762 ft 64 kts 92°
2026-04-28 13:02 42.69639 23.41911 1762 ft 118 kts 93°
2026-04-28 13:02 42.69506 23.43922 1951 ft 187 kts 93°
2026-04-28 13:02 42.69396 23.45658 2798 ft 185 kts 92°
2026-04-28 13:03 42.69306 23.47329 3768 ft 178 kts 91°
2026-04-28 13:03 42.69239 23.49003 4358 ft 186 kts 90°
2026-04-28 13:03 42.69313 23.50822 4825 ft 201 kts 78°
2026-04-28 13:03 42.69595 23.52739 5296 ft 217 kts 75°
2026-04-28 13:04 42.69941 23.54841 5677 ft 241 kts 75°
2026-04-28 13:04 42.70320 23.57148 6264 ft 257 kts 75°
2026-04-28 13:04 42.70704 23.59539 7072 ft 262 kts 75°
2026-04-28 13:04 42.71085 23.61947 7951 ft 265 kts 75°
2026-04-28 13:05 42.71463 23.64360 8786 ft 268 kts 74°
2026-04-28 13:05 42.71851 23.66849 9609 ft 271 kts 75°
2026-04-28 13:05 42.72239 23.69348 10378 ft 276 kts 74°
2026-04-28 13:05 42.72636 23.71899 11136 ft 280 kts 75°
2026-04-28 13:06 42.73040 23.74490 11891 ft 285 kts 75°
2026-04-28 13:06 42.73448 23.77126 12655 ft 289 kts 75°
2026-04-28 13:06 42.73862 23.79808 13402 ft 293 kts 75°
2026-04-28 13:06 42.74283 23.82529 14144 ft 297 kts 75°
2026-04-28 13:07 42.74706 23.85274 14868 ft 300 kts 75°
2026-04-28 13:07 42.75131 23.88035 15575 ft 304 kts 75°
2026-04-28 13:07 42.75561 23.90841 16296 ft 307 kts 75°
2026-04-28 13:07 42.75854 23.92754 16759 ft 309 kts 75°
2026-04-28 13:08 42.76437 23.96560 17658 ft 313 kts 75°
2026-04-28 13:08 42.76883 23.99473 18332 ft 316 kts 75°
2026-04-28 13:08 42.77335 24.02432 18990 ft 319 kts 75°
2026-04-28 13:08 42.77779 24.05355 19627 ft 323 kts 75°
2026-04-28 13:09 42.78239 24.08382 20230 ft 327 kts 74°
2026-04-28 13:09 42.78697 24.11403 20831 ft 331 kts 74°
2026-04-28 13:09 42.79164 24.14483 21413 ft 335 kts 74°
2026-04-28 13:09 42.79622 24.17508 21994 ft 337 kts 74°
2026-04-28 13:10 42.80102 24.20691 22587 ft 341 kts 74°
2026-04-28 13:10 42.80586 24.23910 23157 ft 344 kts 74°
2026-04-28 13:10 42.81067 24.27112 23724 ft 347 kts 74°
2026-04-28 13:10 42.81550 24.30332 24281 ft 350 kts 74°
2026-04-28 13:11 42.82042 24.33616 24837 ft 353 kts 74°
2026-04-28 13:11 42.82531 24.36895 25379 ft 356 kts 74°
2026-04-28 13:11 42.83019 24.40168 25890 ft 358 kts 74°
2026-04-28 13:11 42.83513 24.43494 26395 ft 361 kts 74°
2026-04-28 13:12 42.84015 24.46874 26870 ft 365 kts 73°
2026-04-28 13:12 42.84517 24.50267 27079 ft 367 kts 73°
2026-04-28 13:12 42.85017 24.53653 27077 ft 366 kts 73°
2026-04-28 13:12 42.85522 24.57077 27083 ft 366 kts 73°
2026-04-28 13:13 42.86009 24.60393 27086 ft 366 kts 73°
2026-04-28 13:13 42.86500 24.63742 27086 ft 366 kts 73°
2026-04-28 13:13 42.86990 24.67085 27084 ft 366 kts 74°
2026-04-28 13:13 42.87487 24.70500 27085 ft 366 kts 74°
2026-04-28 13:14 42.87990 24.73975 27085 ft 366 kts 75°
2026-04-28 13:14 42.88491 24.77424 27082 ft 366 kts 75°
2026-04-28 13:14 42.88980 24.80809 27087 ft 366 kts 74°
2026-04-28 13:14 42.89471 24.84203 27088 ft 366 kts 74°
2026-04-28 13:15 42.89964 24.87624 27090 ft 366 kts 75°
2026-04-28 13:15 42.90454 24.91016 27092 ft 365 kts 75°
2026-04-28 13:15 42.90936 24.94365 27092 ft 365 kts 74°
2026-04-28 13:15 42.91421 24.97747 27092 ft 364 kts 75°
2026-04-28 13:16 42.91905 25.01129 27095 ft 364 kts 74°
2026-04-28 13:16 42.92390 25.04526 27095 ft 364 kts 74°
2026-04-28 13:16 42.92865 25.07854 27095 ft 365 kts 74°
2026-04-28 13:16 42.93351 25.11263 27095 ft 365 kts 74°
2026-04-28 13:17 42.93834 25.14665 27094 ft 366 kts 75°
2026-04-28 13:17 42.94321 25.18092 27093 ft 366 kts 75°
2026-04-28 13:17 42.94801 25.21497 27091 ft 366 kts 75°
2026-04-28 13:17 42.95278 25.24880 27092 ft 366 kts 75°
2026-04-28 13:18 42.95764 25.28333 27093 ft 366 kts 75°
2026-04-28 13:18 42.96238 25.31712 27092 ft 366 kts 75°
2026-04-28 13:18 42.96717 25.35135 27086 ft 366 kts 75°
2026-04-28 13:18 42.97192 25.38542 27081 ft 366 kts 75°
2026-04-28 13:19 42.97661 25.41908 27079 ft 365 kts 74°
2026-04-28 13:19 42.98136 25.45316 27079 ft 365 kts 75°
2026-04-28 13:19 42.98606 25.48695 27075 ft 365 kts 75°
2026-04-28 13:19 42.99078 25.52104 27076 ft 366 kts 75°
2026-04-28 13:20 42.99548 25.55500 27075 ft 366 kts 75°
2026-04-28 13:20 43.00017 25.58899 27074 ft 366 kts 75°
2026-04-28 13:20 43.00487 25.62319 27072 ft 366 kts 75°
2026-04-28 13:20 43.00962 25.65786 27076 ft 367 kts 75°
2026-04-28 13:21 43.01430 25.69221 27073 ft 367 kts 76°
2026-04-28 13:21 43.01898 25.72668 27072 ft 367 kts 76°
2026-04-28 13:21 43.02357 25.76059 27072 ft 367 kts 75°
2026-04-28 13:21 43.02818 25.79469 27027 ft 364 kts 76°
2026-04-28 13:22 43.03277 25.82855 26501 ft 368 kts 76°
2026-04-28 13:22 43.03755 25.86361 25653 ft 378 kts 76°
2026-04-28 13:22 43.04234 25.89881 24767 ft 389 kts 76°
2026-04-28 13:22 43.04732 25.93551 23822 ft 399 kts 76°
2026-04-28 13:23 43.05238 25.97305 22925 ft 408 kts 77°
2026-04-28 13:23 43.05750 26.01143 22293 ft 408 kts 77°
2026-04-28 13:23 43.06256 26.04955 21795 ft 406 kts 77°
2026-04-28 13:23 43.06763 26.08775 21032 ft 410 kts 77°
2026-04-28 13:24 43.07272 26.12604 20141 ft 417 kts 77°
2026-04-28 13:24 43.07790 26.16512 19484 ft 417 kts 77°
2026-04-28 13:24 43.08297 26.20356 18964 ft 413 kts 77°
2026-04-28 13:24 43.08805 26.24223 18431 ft 409 kts 77°
2026-04-28 13:25 43.09303 26.28021 17880 ft 406 kts 77°
2026-04-28 13:25 43.09798 26.31792 17344 ft 402 kts 77°
2026-04-28 13:25 43.10286 26.35512 16830 ft 398 kts 77°
2026-04-28 13:25 43.10783 26.39214 16310 ft 395 kts 77°
2026-04-28 13:26 43.11258 26.42775 15820 ft 391 kts 77°
2026-04-28 13:26 43.11741 26.46438 15305 ft 388 kts 77°
2026-04-28 13:26 43.12208 26.50014 14795 ft 384 kts 77°
2026-04-28 13:26 43.12676 26.53622 14273 ft 381 kts 77°
2026-04-28 13:27 43.13129 26.57146 13766 ft 378 kts 77°
2026-04-28 13:27 43.13583 26.60668 13242 ft 375 kts 77°
2026-04-28 13:27 43.14030 26.64163 12745 ft 372 kts 77°
2026-04-28 13:27 43.14473 26.67641 12275 ft 368 kts 78°
2026-04-28 13:28 43.14912 26.71097 12072 ft 367 kts 78°
2026-04-28 13:28 43.15342 26.74506 11755 ft 363 kts 77°
2026-04-28 13:28 43.15773 26.77914 11207 ft 362 kts 77°
2026-04-28 13:28 43.16198 26.81294 10667 ft 361 kts 77°
2026-04-28 13:29 43.16622 26.84658 10153 ft 358 kts 77°
2026-04-28 13:29 43.17039 26.87971 9670 ft 355 kts 77°
2026-04-28 13:29 43.17459 26.91315 9178 ft 353 kts 77°
2026-04-28 13:29 43.17874 26.94621 8681 ft 350 kts 77°
2026-04-28 13:30 43.18280 26.97856 8207 ft 346 kts 77°
2026-04-28 13:30 43.18684 27.01103 7712 ft 343 kts 78°
2026-04-28 13:30 43.19081 27.04272 7240 ft 340 kts 78°
2026-04-28 13:30 43.19474 27.07452 6819 ft 335 kts 78°
2026-04-28 13:31 43.20245 27.13689 5800 ft 330 kts 79°
2026-04-28 13:31 43.20620 27.16740 5347 ft 326 kts 79°
2026-04-28 13:31 43.20996 27.19796 4882 ft 322 kts 79°
2026-04-28 13:32 43.21364 27.22805 4435 ft 319 kts 79°
2026-04-28 13:32 43.21726 27.25772 3977 ft 315 kts 79°
2026-04-28 13:32 43.22081 27.28688 3526 ft 311 kts 80°
2026-04-28 13:32 43.22442 27.31649 3094 ft 321 kts 80°
2026-04-28 13:33 43.22812 27.34701 2979 ft 325 kts 80°
2026-04-28 13:33 43.23179 27.37744 2968 ft 326 kts 80°
2026-04-28 13:33 43.23547 27.40800 2966 ft 326 kts 80°
2026-04-28 13:33 43.23918 27.43893 2962 ft 325 kts 80°
2026-04-28 13:34 43.24271 27.46847 2955 ft 305 kts 80°
2026-04-28 13:34 43.24602 27.49611 2958 ft 286 kts 80°
2026-04-28 13:34 43.24912 27.52206 2958 ft 268 kts 80°
2026-04-28 13:34 43.25227 27.54654 2965 ft 251 kts 81°
2026-04-28 13:35 43.25362 27.56959 2959 ft 233 kts 90°
2026-04-28 13:35 43.25287 27.59088 2970 ft 223 kts 94°
2026-04-28 13:35 43.25133 27.61208 2942 ft 224 kts 96°
2026-04-28 13:35 43.24943 27.63293 2728 ft 219 kts 96°
2026-04-28 13:36 43.24751 27.65313 2419 ft 202 kts 97°
2026-04-28 13:36 43.24584 27.67115 2239 ft 180 kts 97°
2026-04-28 13:36 43.24435 27.68750 2023 ft 167 kts 97°
2026-04-28 13:36 43.24297 27.70273 1777 ft 153 kts 98°
2026-04-28 13:37 43.24172 27.71659 1543 ft 139 kts 98°
2026-04-28 13:37 43.24059 27.72911 1339 ft 127 kts 98°
2026-04-28 13:37 43.23950 27.74114 1189 ft 126 kts 98°
2026-04-28 13:37 43.23843 27.75301 1036 ft 125 kts 98°
2026-04-28 13:38 43.23737 27.76482 874 ft 124 kts 98°
2026-04-28 13:38 43.23632 27.77651 708 ft 123 kts 98°
2026-04-28 13:38 43.23528 27.78812 546 ft 123 kts 98°
2026-04-28 13:38 43.23422 27.79982 379 ft 122 kts 98°
2026-04-28 13:39 43.23316 27.81119 250 ft 120 kts 98°
2026-04-28 13:39 43.23224 27.82189 231 ft 96 kts 98°
2026-04-28 13:39 43.23157 27.82953 241 ft 58 kts 96°
2026-04-28 13:39 43.23146 27.83260 242 ft 18 kts 46°
2026-04-28 13:40 43.23262 27.83299 244 ft 16 kts
2026-04-28 13:40 43.23367 27.83319 247 ft 14 kts
2026-04-28 13:40 43.23464 27.83336 248 ft 13 kts
2026-04-28 13:40 43.23534 27.83290 250 ft 11 kts 288°
2026-04-28 13:41 43.23545 27.83173 250 ft 13 kts 272°
2026-04-28 13:41 43.23552 27.83040 249 ft 15 kts 276°
2026-04-28 13:41 43.23539 27.82891 246 ft 17 kts 270°
2026-04-28 13:41 43.23546 27.82718 242 ft 17 kts 276°
2026-04-28 13:42 43.23557 27.82595 241 ft 6 kts 281°
2026-04-28 13:42 43.23587 27.82601 241 ft 6 kts 60°
2026-04-28 13:42 43.23601 27.82636 243 ft 0 kts 58°
2026-04-28 13:42 43.23603 27.82640 243 ft 3 kts 58°
2026-04-28 13:43 43.23607 27.82650 244 ft 0 kts 59°